Time;durP1;ratioP1;P1;durP2;ratioP2;P2;SDS_P1;SDS_P2;PMS_P1;PMS_P2;Temp;Humidity;BMP_temperature;BMP_pressure;BME280_temperature;BME280_humidity;BME280_pressure;Samples;Min_cycle;Max_cycle;Signal;HPM_P1;HPM_P2
2023/09/30 00:00:58;;;;;;;11.95;5.30;;;;;;;13.58;93.87;102409.44;5097182;28;20433;-61
2023/09/30 00:03:24;;;;;;;13.05;6.43;;;;;;;13.63;93.25;102408.66;5096963;28;20043;-61
2023/09/30 00:05:49;;;;;;;12.18;6.20;;;;;;;13.65;93.18;102406.91;5097009;28;20523;-61
2023/09/30 00:08:15;;;;;;;13.32;5.57;;;;;;;13.61;93.41;102414.78;5097123;28;20028;-61
2023/09/30 00:10:40;;;;;;;10.88;5.78;;;;;;;13.55;93.72;102414.66;5096906;28;20024;-60
2023/09/30 00:13:06;;;;;;;12.98;6.38;;;;;;;13.55;94.06;102415.56;5096927;28;20028;-61
2023/09/30 00:15:33;;;;;;;14.82;6.38;;;;;;;13.52;94.58;102407.50;5097208;28;20101;-61
2023/09/30 00:17:58;;;;;;;13.00;6.53;;;;;;;13.49;94.50;102415.41;5097026;28;20016;-61
2023/09/30 00:20:24;;;;;;;12.45;6.60;;;;;;;13.57;94.92;102421.78;5095493;28;20035;-61
2023/09/30 00:22:50;;;;;;;14.32;6.63;;;;;;;13.56;94.35;102414.69;5096647;28;20039;-60
2023/09/30 00:25:15;;;;;;;15.60;7.50;;;;;;;13.55;94.72;102418.22;5096662;28;20052;-61
2023/09/30 00:27:40;;;;;;;14.82;6.72;;;;;;;13.57;94.68;102421.78;5096689;28;20556;-61
2023/09/30 00:30:06;;;;;;;10.63;6.30;;;;;;;13.57;95.26;102426.19;5096679;28;20413;-61
2023/09/30 00:32:33;;;;;;;12.85;7.15;;;;;;;13.50;95.41;102419.84;5096538;28;20027;-60
2023/09/30 00:34:59;;;;;;;11.40;6.75;;;;;;;13.46;95.94;102408.25;5096410;28;20044;-61
2023/09/30 00:37:24;;;;;;;16.33;7.28;;;;;;;13.47;96.08;102411.81;5096321;28;20075;-61
2023/09/30 00:39:49;;;;;;;16.80;7.43;;;;;;;13.50;95.92;102423.41;5096340;28;20562;-61
2023/09/30 00:42:15;;;;;;;13.38;7.38;;;;;;;13.54;95.90;102427.03;5096477;28;20040;-61
2023/09/30 00:44:40;;;;;;;17.48;7.93;;;;;;;13.66;95.61;102445.00;5096196;28;20529;-61
2023/09/30 00:47:06;;;;;;;11.73;6.75;;;;;;;13.64;95.65;102444.09;5096233;28;20024;-60
2023/09/30 00:49:33;;;;;;;12.13;7.03;;;;;;;13.62;96.23;102435.16;5096847;28;20028;-61
2023/09/30 00:51:59;;;;;;;12.77;6.60;;;;;;;13.65;96.56;102435.25;5096136;28;20442;-61
2023/09/30 00:54:26;;;;;;;16.70;7.60;;;;;;;13.67;96.64;102437.09;5096364;28;20028;-61
2023/09/30 00:56:55;;;;;;;14.88;7.25;;;;;;;13.71;96.09;102423.03;5096350;28;20028;-61
2023/09/30 00:59:21;;;;;;;13.32;6.65;;;;;;;13.73;95.32;102426.59;5095958;28;20020;-60
2023/09/30 01:01:46;;;;;;;12.27;6.93;;;;;;;13.74;95.44;102432.81;5095882;28;20500;-61
2023/09/30 01:04:12;;;;;;;19.02;7.63;;;;;;;13.75;95.34;102437.28;5094814;28;20039;-61
2023/09/30 01:06:38;;;;;;;10.45;6.90;;;;;;;13.68;95.58;102436.22;5095859;28;20495;-61
2023/09/30 01:09:04;;;;;;;17.60;7.25;;;;;;;13.58;96.59;102439.53;5095929;28;20024;-61
2023/09/30 01:11:30;;;;;;;11.98;7.38;;;;;;;13.45;97.14;102433.03;5095826;28;20066;-61
2023/09/30 01:13:55;;;;;;;12.98;7.35;;;;;;;13.38;97.11;102433.72;5096025;28;20086;-61
2023/09/30 01:16:21;;;;;;;16.42;7.65;;;;;;;13.38;97.05;102438.16;5095767;28;20508;-61
2023/09/30 01:18:47;;;;;;;14.48;8.15;;;;;;;13.35;96.88;102448.69;5095858;28;20020;-60
2023/09/30 01:21:12;;;;;;;12.95;7.68;;;;;;;13.28;97.37;102445.88;5095443;28;20421;-61
2023/09/30 01:23:38;;;;;;;11.93;7.40;;;;;;;13.27;97.16;102448.47;5095751;28;20046;-61
2023/09/30 01:26:12;;;;;;;12.60;7.25;;;;;;;13.24;97.23;102457.28;5095843;28;20051;-61
2023/09/30 01:28:38;;;;;;;15.68;7.43;;;;;;;13.26;97.32;102467.94;5095813;28;20435;-61
2023/09/30 01:31:05;;;;;;;14.50;7.30;;;;;;;13.31;97.19;102478.66;5095454;28;20031;-61
2023/09/30 01:33:31;;;;;;;10.73;6.60;;;;;;;13.26;96.95;102471.47;5095575;28;20058;-61
2023/09/30 01:35:57;;;;;;;15.25;7.60;;;;;;;13.24;97.22;102467.00;5095030;28;20048;-61
2023/09/30 01:38:22;;;;;;;14.75;7.43;;;;;;;13.19;97.39;102466.84;5095182;28;20098;-61
2023/09/30 01:40:48;;;;;;;9.73;6.95;;;;;;;13.08;97.90;102472.72;5095607;28;20024;-61
2023/09/30 01:43:15;;;;;;;14.98;7.43;;;;;;;13.11;98.46;102471.06;5095359;28;20019;-61
2023/09/30 01:45:41;;;;;;;14.52;7.25;;;;;;;13.07;98.54;102468.28;5095397;28;20111;-61
2023/09/30 01:48:06;;;;;;;12.75;7.40;;;;;;;13.14;98.68;102457.84;5094942;28;20573;-61
2023/09/30 01:50:32;;;;;;;14.95;7.43;;;;;;;13.16;98.79;102450.84;5093756;28;20098;-61
2023/09/30 01:52:57;;;;;;;13.77;7.75;;;;;;;13.22;98.71;102442.13;5095016;28;20028;-61
2023/09/30 01:55:23;;;;;;;13.75;7.72;;;;;;;13.18;98.62;102445.56;5094996;28;20024;-61
2023/09/30 01:57:48;;;;;;;14.93;8.00;;;;;;;13.19;98.96;102450.00;5094276;28;20024;-60
2023/09/30 02:00:14;;;;;;;13.27;7.82;;;;;;;13.12;98.70;102446.31;5094871;28;20519;-61
2023/09/30 02:02:39;;;;;;;15.95;8.25;;;;;;;13.11;98.81;102444.53;5094643;28;20073;-60
2023/09/30 02:05:08;;;;;;;11.45;7.75;;;;;;;13.10;98.92;102441.81;5095047;28;20028;-61
2023/09/30 02:07:34;;;;;;;16.42;8.10;;;;;;;13.10;98.87;102440.06;5094461;28;20412;-61
2023/09/30 02:09:59;;;;;;;15.07;7.85;;;;;;;13.06;99.34;102448.81;5094604;28;20032;-60
2023/09/30 02:12:27;;;;;;;14.48;7.93;;;;;;;12.98;99.13;102445.97;5094886;28;20080;-60
2023/09/30 02:14:52;;;;;;;16.67;8.27;;;;;;;13.03;99.91;102452.28;5094201;28;20124;-61
2023/09/30 02:17:18;;;;;;;17.85;8.43;;;;;;;13.00;99.93;102459.25;5094372;28;20489;-61
2023/09/30 02:19:44;;;;;;;20.70;8.80;;;;;;;12.94;100.00;102467.06;5094847;28;20028;-61
2023/09/30 02:22:09;;;;;;;17.27;8.60;;;;;;;12.93;100.00;102466.16;5093118;28;20036;-61
2023/09/30 02:24:34;;;;;;;15.48;7.85;;;;;;;12.93;100.00;102467.91;5093063;28;20117;-61
2023/09/30 02:27:00;;;;;;;14.20;8.00;;;;;;;12.95;100.00;102469.75;5094348;28;20385;-61
2023/09/30 02:29:25;;;;;;;13.82;8.32;;;;;;;12.95;100.00;102460.88;5094321;28;20035;-61
2023/09/30 02:31:51;;;;;;;14.93;8.50;;;;;;;12.93;100.00;102459.94;5094216;28;20082;-60
2023/09/30 02:34:16;;;;;;;16.70;8.68;;;;;;;12.90;100.00;102458.13;5094317;28;20020;-62
2023/09/30 02:36:41;;;;;;;13.65;8.85;;;;;;;12.84;100.00;102455.28;5093978;28;20082;-61
2023/09/30 02:39:09;;;;;;;14.85;8.13;;;;;;;12.82;100.00;102458.75;5094128;28;20389;-61
2023/09/30 02:41:35;;;;;;;13.65;8.27;;;;;;;12.78;100.00;102465.75;5094341;28;20051;-60
2023/09/30 02:44:00;;;;;;;15.35;7.93;;;;;;;12.79;100.00;102467.53;5093938;28;20063;-60
2023/09/30 02:46:27;;;;;;;15.98;8.48;;;;;;;12.78;100.00;102461.31;5094164;28;20024;-61
2023/09/30 02:48:53;;;;;;;15.52;8.82;;;;;;;12.74;100.00;102451.50;5093683;28;20477;-61
2023/09/30 02:51:19;;;;;;;15.88;8.23;;;;;;;12.74;100.00;102455.91;5092803;28;20086;-61
2023/09/30 02:53:44;;;;;;;18.02;8.93;;;;;;;12.73;100.00;102455.00;5093908;28;20388;-61
2023/09/30 02:56:10;;;;;;;15.43;8.68;;;;;;;12.69;100.00;102453.13;5093855;28;20052;-61
2023/09/30 02:58:35;;;;;;;15.80;8.68;;;;;;;12.66;100.00;102438.88;5093779;28;20073;-61
2023/09/30 03:01:01;;;;;;;17.58;8.90;;;;;;;12.66;100.00;102442.41;5094019;28;20078;-60
2023/09/30 03:03:27;;;;;;;14.73;8.10;;;;;;;12.73;100.00;102448.81;5093526;28;20024;-61
2023/09/30 03:05:54;;;;;;;15.05;8.18;;;;;;;12.74;100.00;102445.28;5093677;28;20032;-61
2023/09/30 03:08:19;;;;;;;13.98;8.48;;;;;;;12.73;100.00;102451.44;5093498;28;20444;-60
2023/09/30 03:10:45;;;;;;;14.80;8.50;;;;;;;12.70;100.00;102456.66;5093533;28;20038;-61
2023/09/30 03:13:11;;;;;;;14.73;8.13;;;;;;;12.66;100.00;102455.69;5093595;28;20028;-61
2023/09/30 03:15:38;;;;;;;13.18;8.13;;;;;;;12.65;100.00;102463.59;5093811;28;20043;-61
2023/09/30 03:18:04;;;;;;;13.60;8.70;;;;;;;12.64;100.00;102459.16;5093354;28;20473;-60
2023/09/30 03:20:30;;;;;;;17.80;8.60;;;;;;;12.62;100.00;102456.44;5093476;28;20047;-60
2023/09/30 03:22:56;;;;;;;14.40;8.10;;;;;;;12.64;100.00;102460.06;5093246;28;20039;-60
2023/09/30 03:25:22;;;;;;;14.15;7.88;;;;;;;12.68;100.00;102453.97;5093373;28;20021;-61
2023/09/30 03:27:48;;;;;;;15.70;8.20;;;;;;;12.69;100.00;102444.28;5091656;28;20107;-61
2023/09/30 03:30:15;;;;;;;16.33;8.10;;;;;;;12.66;100.00;102442.41;5093286;28;20028;-61
2023/09/30 03:32:41;;;;;;;17.60;8.20;;;;;;;12.65;100.00;102423.81;5093424;28;20077;-61
2023/09/30 03:35:10;;;;;;;13.95;8.43;;;;;;;12.71;100.00;102431.94;5092889;28;20056;-61
2023/09/30 03:37:38;;;;;;;16.45;8.23;;;;;;;12.69;100.00;102437.22;5093284;28;20036;-61
2023/09/30 03:40:13;;;;;;;14.30;8.48;;;;;;;12.65;100.00;102437.09;5093113;28;20543;-61
2023/09/30 03:42:42;;;;;;;14.82;8.20;;;;;;;12.63;100.00;102436.13;5093038;28;20482;-61
2023/09/30 03:45:08;;;;;;;15.35;8.18;;;;;;;12.64;100.00;102444.16;5093179;28;20024;-60
2023/09/30 03:47:35;;;;;;;14.07;8.25;;;;;;;12.69;100.00;102445.16;5093106;28;20039;-61
2023/09/30 03:50:04;;;;;;;13.57;8.02;;;;;;;12.72;100.00;102445.25;5093073;28;20067;-61
2023/09/30 03:52:32;;;;;;;14.68;8.18;;;;;;;12.74;100.00;102442.63;5093113;28;20111;-60
2023/09/30 03:54:59;;;;;;;18.02;8.40;;;;;;;12.72;100.00;102447.91;5092957;28;20025;-61
2023/09/30 03:57:24;;;;;;;14.23;8.25;;;;;;;12.72;100.00;102447.00;5093111;28;20054;-61
2023/09/30 03:59:50;;;;;;;11.50;7.47;;;;;;;12.68;100.00;102442.47;5093002;28;20028;-61
2023/09/30 04:02:15;;;;;;;14.65;7.65;;;;;;;12.67;100.00;102440.66;5092805;28;20086;-61
2023/09/30 04:04:40;;;;;;;16.88;8.43;;;;;;;12.64;100.00;102441.50;5093210;28;20020;-61
2023/09/30 04:07:07;;;;;;;15.65;7.75;;;;;;;12.60;100.00;102436.97;5092814;28;20024;-61
2023/09/30 04:09:33;;;;;;;13.38;7.75;;;;;;;12.57;100.00;102443.91;5092896;28;20028;-61
2023/09/30 04:11:58;;;;;;;13.18;8.05;;;;;;;12.53;100.00;102441.19;5093105;28;20115;-61
2023/09/30 04:14:25;;;;;;;12.85;8.07;;;;;;;12.54;100.00;102436.75;5092907;28;20465;-61
2023/09/30 04:16:50;;;;;;;13.60;8.10;;;;;;;12.51;100.00;102449.97;5092827;28;20073;-61
2023/09/30 04:19:16;;;;;;;16.35;8.10;;;;;;;12.49;100.00;102449.91;5091470;28;20024;-61
2023/09/30 04:21:41;;;;;;;14.27;7.88;;;;;;;12.49;100.00;102438.41;5093041;28;20036;-61
2023/09/30 04:24:07;;;;;;;14.75;8.52;;;;;;;12.45;100.00;102439.16;5092653;28;20118;-60
2023/09/30 04:26:32;;;;;;;12.75;7.70;;;;;;;12.42;100.00;102436.41;5092706;28;20035;-61
2023/09/30 04:28:58;;;;;;;14.32;7.90;;;;;;;12.39;100.00;102439.00;5093021;28;20035;-60
2023/09/30 04:31:23;;;;;;;15.35;7.63;;;;;;;12.37;100.00;102436.28;5092724;28;20028;-61
2023/09/30 04:33:53;;;;;;;14.88;7.90;;;;;;;12.41;100.00;102445.22;5091658;28;20051;-61
2023/09/30 04:36:19;;;;;;;15.27;8.77;;;;;;;12.47;100.00;102445.41;5092326;28;20211;-61
2023/09/30 04:38:45;;;;;;;11.82;7.75;;;;;;;12.55;100.00;102441.25;5094340;28;20117;-61
2023/09/30 04:41:10;;;;;;;15.50;8.10;;;;;;;12.53;100.00;102454.44;5096325;28;20063;-61
2023/09/30 04:43:38;;;;;;;16.73;8.23;;;;;;;12.48;100.00;102453.41;5096619;28;20030;-60
2023/09/30 04:46:04;;;;;;;13.85;8.27;;;;;;;12.39;100.00;102458.44;5096382;28;20114;-61
2023/09/30 04:48:29;;;;;;;15.88;8.48;;;;;;;12.35;100.00;102453.03;5096184;28;20114;-61
2023/09/30 04:50:55;;;;;;;12.18;7.82;;;;;;;12.34;100.00;102460.06;5096175;28;20358;-61
2023/09/30 04:53:20;;;;;;;15.85;8.35;;;;;;;12.33;100.00;102460.00;5096084;28;20032;-61
2023/09/30 04:55:47;;;;;;;12.05;7.80;;;;;;;12.32;100.00;102460.88;5095057;28;20077;-61
2023/09/30 04:58:13;;;;;;;12.90;7.70;;;;;;;12.34;100.00;102456.53;5096025;28;20035;-61
2023/09/30 05:00:39;;;;;;;18.17;8.00;;;;;;;12.36;100.00;102463.66;5096054;28;20024;-61
2023/09/30 05:03:05;;;;;;;12.73;7.78;;;;;;;12.31;100.00;102457.31;5096057;28;20119;-61
2023/09/30 05:05:30;;;;;;;14.93;7.80;;;;;;;12.34;100.00;102464.47;5095929;28;20112;-60
2023/09/30 05:07:57;;;;;;;14.30;7.82;;;;;;;12.35;100.00;102471.56;5095583;28;20470;-61
2023/09/30 05:10:24;;;;;;;14.43;8.00;;;;;;;12.33;100.00;102470.63;5095898;28;20063;-61
2023/09/30 05:12:49;;;;;;;15.98;8.60;;;;;;;12.33;100.00;102482.09;5095729;28;20024;-61
2023/09/30 05:15:16;;;;;;;15.25;8.10;;;;;;;12.37;100.00;102480.44;5095723;28;20542;-60
2023/09/30 05:17:43;;;;;;;14.32;8.27;;;;;;;12.36;100.00;102484.84;5095505;28;20477;-61
2023/09/30 05:20:10;;;;;;;10.63;6.80;;;;;;;12.30;99.73;102481.16;5095524;28;20474;-61
2023/09/30 05:22:36;;;;;;;11.60;6.60;;;;;;;12.30;99.03;102478.50;5095445;28;20477;-61
2023/09/30 05:25:01;;;;;;;10.30;6.40;;;;;;;12.27;98.93;102477.53;5095512;28;20036;-61
2023/09/30 05:27:27;;;;;;;12.55;7.57;;;;;;;12.25;98.83;102488.97;5095552;28;20028;-60
2023/09/30 05:29:53;;;;;;;13.88;7.68;;;;;;;12.25;100.00;102481.91;5095723;28;20035;-61
2023/09/30 05:32:18;;;;;;;14.13;8.40;;;;;;;12.20;100.00;102480.84;5095336;28;20074;-61
2023/09/30 05:34:44;;;;;;;11.90;7.15;;;;;;;12.15;100.00;102479.81;5095382;28;20031;-61
2023/09/30 05:37:09;;;;;;;13.55;7.63;;;;;;;12.11;100.00;102484.97;5094737;28;20420;-61
2023/09/30 05:39:35;;;;;;;12.68;7.82;;;;;;;12.05;100.00;102491.00;5094921;28;20020;-61
2023/09/30 05:42:01;;;;;;;12.82;7.20;;;;;;;12.07;100.00;102483.97;5095044;28;20020;-61
2023/09/30 05:44:27;;;;;;;11.00;6.97;;;;;;;12.13;100.00;102486.84;5094514;28;20495;-60
2023/09/30 05:46:53;;;;;;;12.32;6.82;;;;;;;12.10;100.00;102489.38;5093405;28;20492;-61
2023/09/30 05:49:19;;;;;;;12.70;7.97;;;;;;;12.05;100.00;102491.00;5092749;28;20059;-61
2023/09/30 05:51:46;;;;;;;13.98;7.85;;;;;;;12.07;100.00;102491.03;5094563;28;20141;-60
2023/09/30 05:54:11;;;;;;;18.83;8.85;;;;;;;12.10;100.00;102496.44;5094703;28;20127;-60
2023/09/30 05:56:37;;;;;;;14.82;8.15;;;;;;;12.14;100.00;102496.56;5094496;28;20028;-60
2023/09/30 05:59:06;;;;;;;12.82;7.93;;;;;;;12.25;100.00;102492.50;5094655;28;20043;-61
2023/09/30 06:01:32;;;;;;;17.75;8.57;;;;;;;12.33;100.00;102497.13;5094590;28;20042;-61
2023/09/30 06:03:58;;;;;;;16.00;9.52;;;;;;;12.38;100.00;102501.72;5094091;28;20110;-61
2023/09/30 06:06:24;;;;;;;18.95;9.43;;;;;;;12.47;100.00;102501.09;5094228;28;20496;-60
2023/09/30 06:08:49;;;;;;;15.80;9.10;;;;;;;12.54;100.00;102497.75;5094198;28;20028;-61
2023/09/30 06:11:24;;;;;;;20.52;9.88;;;;;;;12.68;100.00;102504.38;5094089;28;20393;-60
2023/09/30 06:13:53;;;;;;;16.40;9.48;;;;;;;12.78;100.00;102505.53;5094283;28;20389;-61
2023/09/30 06:16:20;;;;;;;16.40;8.95;;;;;;;12.84;100.00;102496.84;5093949;28;20102;-61
2023/09/30 06:18:45;;;;;;;14.63;8.48;;;;;;;12.86;100.00;102500.44;5094015;28;20024;-61
2023/09/30 06:21:16;;;;;;;14.43;8.85;;;;;;;12.92;100.00;102496.19;5094071;28;20028;-60
2023/09/30 06:23:43;;;;;;;17.38;9.48;;;;;;;12.97;100.00;102491.91;5094232;28;20043;-61
2023/09/30 06:26:09;;;;;;;18.35;8.93;;;;;;;12.99;100.00;102492.84;5094191;28;20117;-61
2023/09/30 06:28:40;;;;;;;15.90;9.30;;;;;;;13.15;100.00;102493.28;5093896;28;20036;-61
2023/09/30 06:31:09;;;;;;;19.80;10.40;;;;;;;13.26;100.00;102482.09;5094034;28;20081;-60
2023/09/30 06:33:38;;;;;;;14.77;9.10;;;;;;;13.25;100.00;102493.59;5093918;28;20028;-61
2023/09/30 06:36:16;;;;;;;14.68;8.80;;;;;;;13.25;100.00;102495.34;5093588;28;20058;-61
2023/09/30 06:38:43;;;;;;;16.20;9.20;;;;;;;13.17;100.00;102500.41;5093633;28;20366;-61
2023/09/30 06:41:09;;;;;;;19.88;9.32;;;;;;;13.17;100.00;102507.47;5093997;28;20016;-61
2023/09/30 06:43:37;;;;;;;19.05;9.15;;;;;;;13.14;100.00;102502.97;5093531;28;20085;-60
2023/09/30 06:46:09;;;;;;;18.33;10.38;;;;;;;13.09;100.00;102498.41;5093735;28;20020;-61
2023/09/30 06:48:35;;;;;;;19.77;10.48;;;;;;;13.05;100.00;102500.06;5093448;28;20024;-61
2023/09/30 06:51:01;;;;;;;23.05;9.90;;;;;;;13.08;100.00;102508.13;5093500;28;20377;-61
2023/09/30 06:53:27;;;;;;;17.85;9.52;;;;;;;13.21;100.00;102507.59;5093401;28;20052;-60
2023/09/30 06:55:52;;;;;;;21.85;10.75;;;;;;;13.32;100.00;102514.97;5092280;28;20028;-61
2023/09/30 06:58:21;;;;;;;15.52;10.30;;;;;;;13.39;100.00;102524.91;5093503;28;20032;-60
2023/09/30 07:00:56;;;;;;;21.42;10.75;;;;;;;13.39;100.00;102530.22;5093531;28;20016;-60
2023/09/30 07:03:21;;;;;;;18.77;9.93;;;;;;;13.41;100.00;102545.34;5093141;28;20097;-60
2023/09/30 07:05:49;;;;;;;22.52;10.60;;;;;;;13.51;100.00;102549.13;5093174;28;20428;-61
2023/09/30 07:08:18;;;;;;;15.52;10.45;;;;;;;13.70;100.00;102551.41;5093226;28;20036;-61
2023/09/30 07:10:46;;;;;;;19.20;10.93;;;;;;;14.03;100.00;102548.66;5093427;28;20035;-61
2023/09/30 07:13:12;;;;;;;18.27;10.35;;;;;;;14.29;100.00;102556.34;5091747;28;20028;-61
2023/09/30 07:15:43;;;;;;;19.55;10.70;;;;;;;14.53;100.00;102556.94;5091956;28;20078;-61
2023/09/30 07:18:09;;;;;;;25.17;10.27;;;;;;;14.70;100.00;102551.97;5093234;28;20047;-61
2023/09/30 07:20:35;;;;;;;21.27;10.85;;;;;;;14.90;100.00;102555.06;5091500;28;20020;-61
2023/09/30 07:23:01;;;;;;;20.42;10.48;;;;;;;15.05;100.00;102549.13;5092859;28;20051;-61
2023/09/30 07:25:27;;;;;;;19.38;10.57;;;;;;;15.10;100.00;102550.09;5092787;28;20381;-61
2023/09/30 07:27:52;;;;;;;22.50;10.63;;;;;;;15.35;100.00;102558.56;5091721;28;20150;-60
2023/09/30 07:30:18;;;;;;;17.75;9.40;;;;;;;15.58;99.20;102570.53;5091738;28;20140;-61
2023/09/30 07:32:45;;;;;;;19.77;9.68;;;;;;;15.73;99.28;102580.59;5093063;28;20028;-64
2023/09/30 07:35:12;;;;;;;18.45;9.25;;;;;;;15.76;97.59;102594.88;5092763;28;20035;-61
2023/09/30 07:37:37;;;;;;;17.35;9.30;;;;;;;15.68;97.25;102595.63;5092732;28;20024;-61
2023/09/30 07:40:03;;;;;;;17.33;8.65;;;;;;;15.60;97.04;102602.56;5092725;28;20024;-61
2023/09/30 07:42:29;;;;;;;18.83;9.45;;;;;;;15.50;97.88;102607.72;5092522;28;20043;-61
2023/09/30 07:44:55;;;;;;;19.08;9.02;;;;;;;15.43;97.71;102603.13;5093044;28;20032;-61
2023/09/30 07:47:21;;;;;;;15.43;8.25;;;;;;;15.39;98.31;102605.72;5092734;28;20103;-60
2023/09/30 07:49:46;;;;;;;18.33;9.13;;;;;;;15.55;99.31;102601.56;5092825;28;20070;-61
2023/09/30 07:52:12;;;;;;;20.90;9.80;;;;;;;15.70;99.67;102586.78;5092540;28;20028;-61
2023/09/30 07:54:37;;;;;;;18.55;9.40;;;;;;;15.91;98.62;102596.91;5092668;28;20032;-61
2023/09/30 07:57:02;;;;;;;19.77;9.68;;;;;;;16.18;98.60;102587.53;5092821;28;20377;-61
2023/09/30 07:59:28;;;;;;;20.90;10.07;;;;;;;16.49;98.04;102584.47;5092394;28;20080;-61
2023/09/30 08:01:53;;;;;;;20.10;9.55;;;;;;;16.73;96.92;102591.03;5092817;28;20028;-61
2023/09/30 08:04:19;;;;;;;21.63;9.55;;;;;;;16.90;95.80;102586.81;5092440;28;20386;-61
2023/09/30 08:06:44;;;;;;;18.88;9.25;;;;;;;17.18;94.31;102590.72;5092363;28;20024;-61
2023/09/30 08:09:13;;;;;;;20.13;8.93;;;;;;;17.37;93.48;102591.81;5092351;28;20036;-61
2023/09/30 08:11:39;;;;;;;20.52;9.05;;;;;;;17.62;92.95;102582.28;5092526;28;20028;-61
2023/09/30 08:14:06;;;;;;;25.42;8.38;;;;;;;17.88;90.72;102579.84;5094879;28;20051;-61
2023/09/30 08:16:36;;;;;;;20.65;8.48;;;;;;;17.98;89.07;102583.50;5096802;28;20028;-61
2023/09/30 08:19:03;;;;;;;15.57;8.18;;;;;;;18.19;89.12;102578.31;5096535;28;20028;-61
2023/09/30 08:21:28;;;;;;;20.00;8.45;;;;;;;18.36;88.72;102582.88;5096409;28;20024;-61
2023/09/30 08:23:54;;;;;;;19.88;8.05;;;;;;;18.59;88.59;102581.25;5096477;28;20031;-61
2023/09/30 08:26:19;;;;;;;20.08;8.00;;;;;;;18.69;86.21;102569.72;5096299;28;20473;-61
2023/09/30 08:28:45;;;;;;;15.82;7.45;;;;;;;18.84;86.24;102570.66;5096476;28;20111;-61
2023/09/30 08:31:10;;;;;;;17.15;7.88;;;;;;;18.96;84.78;102570.72;5094887;28;20040;-61
2023/09/30 08:33:43;;;;;;;22.95;8.02;;;;;;;18.91;84.44;102575.16;5096349;28;20036;-61
2023/09/30 08:36:10;;;;;;;20.75;8.63;;;;;;;19.14;85.18;102567.19;5078541;28;20080;-61
2023/09/30 08:38:40;;;;;;;22.88;7.45;;;;;;;19.29;82.43;102564.56;5094545;28;20493;-61
2023/09/30 08:41:07;;;;;;;18.38;7.68;;;;;;;19.33;82.16;102570.84;5094629;28;20061;-62
2023/09/30 08:43:38;;;;;;;20.05;7.93;;;;;;;19.24;81.11;102551.16;5095890;28;20035;-62
2023/09/30 08:46:05;;;;;;;18.73;7.63;;;;;;;19.24;79.89;102564.56;5095935;28;20024;-61
2023/09/30 08:48:32;;;;;;;20.35;7.63;;;;;;;19.42;81.65;102563.69;5095896;28;20379;-61
2023/09/30 08:50:59;;;;;;;19.67;7.55;;;;;;;19.54;79.81;102552.09;5095849;28;20032;-62
2023/09/30 08:53:25;;;;;;;17.83;7.55;;;;;;;19.74;79.86;102553.03;5095875;28;20481;-61
2023/09/30 08:55:56;;;;;;;20.38;7.90;;;;;;;19.76;79.04;102556.59;5095752;28;20059;-61
2023/09/30 08:58:27;;;;;;;15.45;7.05;;;;;;;19.96;77.81;102555.72;5095575;28;20032;-62
2023/09/30 09:00:52;;;;;;;15.35;7.20;;;;;;;19.99;77.30;102555.69;5095604;28;20024;-61
2023/09/30 09:03:20;;;;;;;18.10;6.78;;;;;;;20.11;76.82;102552.09;5095331;28;20496;-62
2023/09/30 09:05:59;;;;;;;17.40;7.15;;;;;;;20.32;78.13;102556.53;5095557;28;20511;-62
2023/09/30 09:08:26;;;;;;;14.05;6.40;;;;;;;20.47;74.44;102572.59;5095396;28;20077;-61
2023/09/30 09:11:00;;;;;;;12.98;6.35;;;;;;;20.59;75.46;102575.28;5095523;28;20477;-62
2023/09/30 09:13:26;;;;;;;15.02;6.50;;;;;;;20.81;74.41;102568.03;5095506;28;20070;-62
2023/09/30 09:16:10;;;;;;;15.38;6.72;;;;;;;20.88;73.50;102582.34;5094285;28;20031;-62
2023/09/30 09:18:36;;;;;;;18.92;6.55;;;;;;;20.92;72.27;102586.81;5095162;28;20040;-62
2023/09/30 09:21:10;;;;;;;15.52;6.88;;;;;;;20.88;73.00;102585.94;5094040;28;20081;-62
2023/09/30 09:23:49;;;;;;;14.30;6.95;;;;;;;20.74;72.94;102587.78;5095389;28;20028;-62
2023/09/30 09:26:28;;;;;;;14.13;6.63;;;;;;;20.85;72.89;102588.63;5094103;28;20483;-62
2023/09/30 09:29:02;;;;;;;16.33;6.32;;;;;;;21.08;71.54;102601.09;5095370;28;20077;-62
2023/09/30 09:31:30;;;;;;;13.60;6.03;;;;;;;21.17;69.73;102614.47;5095312;28;20035;-61
2023/09/30 09:33:57;;;;;;;16.55;6.80;;;;;;;21.23;70.68;102604.56;5094854;28;20069;-62
2023/09/30 09:36:38;;;;;;;15.10;5.88;;;;;;;21.56;69.65;102628.63;5094807;28;20048;-62
2023/09/30 09:39:04;;;;;;;16.35;5.97;;;;;;;21.89;69.12;102627.50;5094737;28;20036;-62
2023/09/30 09:41:29;;;;;;;14.02;5.60;;;;;;;22.00;65.41;102620.22;5094986;28;20035;-62
2023/09/30 09:43:58;;;;;;;16.50;6.18;;;;;;;21.98;65.70;102625.63;5094624;28;20034;-62
2023/09/30 09:46:25;;;;;;;15.30;6.30;;;;;;;22.15;64.92;102621.94;5094735;28;20020;-62
2023/09/30 09:48:53;;;;;;;18.52;5.88;;;;;;;22.38;65.76;102610.91;5093430;28;20056;-62
2023/09/30 09:51:21;;;;;;;15.75;6.38;;;;;;;22.37;63.13;102620.81;5094661;28;20024;-62
2023/09/30 09:53:50;;;;;;;13.05;6.03;;;;;;;22.34;64.11;102619.94;5094925;28;20028;-62
2023/09/30 09:56:16;;;;;;;11.55;5.90;;;;;;;22.37;63.52;102619.91;5094483;28;20032;-61
2023/09/30 09:58:43;;;;;;;14.45;5.97;;;;;;;22.32;62.64;102628.03;5094528;28;20469;-62
2023/09/30 10:01:09;;;;;;;13.90;6.18;;;;;;;22.19;63.53;102627.25;5094669;28;20060;-62
2023/09/30 10:03:36;;;;;;;12.40;5.80;;;;;;;22.13;63.13;102624.59;5076148;28;20031;-62
2023/09/30 10:06:02;;;;;;;14.52;6.10;;;;;;;22.42;64.28;102615.38;5094487;28;20069;-61
2023/09/30 10:08:35;;;;;;;14.57;5.88;;;;;;;22.71;63.55;102623.13;5094503;28;20085;-62
2023/09/30 10:11:01;;;;;;;14.27;5.80;;;;;;;22.69;62.86;102627.63;5094223;28;20432;-61
2023/09/30 10:14:03;;;;;;;13.98;5.95;;;;;;;22.57;63.36;102627.78;5080784;28;20048;-62
2023/09/30 10:16:34;;;;;;;13.50;6.15;;;;;;;22.74;62.92;102632.09;5101246;28;20066;-61
2023/09/30 10:19:11;;;;;;;12.65;6.05;;;;;;;22.93;62.77;102642.69;5085233;28;20081;-61
2023/09/30 10:21:37;;;;;;;16.40;6.32;;;;;;;23.04;61.01;102643.44;5103041;28;20027;-64
2023/09/30 10:24:24;;;;;;;18.55;7.18;;;;;;;23.07;62.72;102646.09;5104700;28;20480;-62
2023/09/30 10:27:28;;;;;;;13.88;7.00;;;;;;;23.09;62.64;102624.50;5101456;28;20537;-62
2023/09/30 10:29:57;;;;;;;13.52;7.13;;;;;;;23.21;60.51;102627.03;5102457;28;20024;-62
2023/09/30 10:32:43;;;;;;;15.73;7.38;;;;;;;23.53;59.54;102613.09;5102498;28;20466;-62
2023/09/30 10:35:08;;;;;;;15.23;8.00;;;;;;;23.59;59.90;102609.41;5100642;28;20065;-61
2023/09/30 10:37:34;;;;;;;16.38;7.93;;;;;;;23.73;59.58;102599.31;5094311;28;20048;-61
2023/09/30 10:39:59;;;;;;;16.42;8.65;;;;;;;23.80;59.38;102598.28;5093614;28;20441;-61
2023/09/30 10:42:49;;;;;;;15.43;8.02;;;;;;;23.80;59.68;102594.69;5092316;28;20031;-62
2023/09/30 10:45:38;;;;;;;16.50;7.93;;;;;;;23.62;60.27;102599.44;5093885;28;20028;-61
2023/09/30 10:48:33;;;;;;;15.05;7.80;;;;;;;23.27;60.22;102591.00;5093690;28;20052;-61
2023/09/30 10:51:10;;;;;;;13.75;7.10;;;;;;;23.03;60.17;102589.53;5084033;28;20486;-61
2023/09/30 10:53:41;;;;;;;16.20;8.25;;;;;;;22.85;60.30;102582.53;5093905;28;20036;-61
2023/09/30 10:56:07;;;;;;;14.53;7.20;;;;;;;22.55;60.07;102581.09;5093678;28;20043;-61
2023/09/30 10:58:46;;;;;;;12.32;6.85;;;;;;;22.63;60.97;102580.09;5091995;28;20040;-61
2023/09/30 11:01:17;;;;;;;11.75;6.28;;;;;;;22.67;60.12;102576.47;5093149;28;20074;-61
2023/09/30 11:03:43;;;;;;;12.37;6.73;;;;;;;22.44;59.40;102565.97;5093191;28;20024;-61
2023/09/30 11:06:20;;;;;;;12.55;5.88;;;;;;;22.63;60.59;102566.63;5093205;28;20263;-61
2023/09/30 11:09:00;;;;;;;14.07;6.70;;;;;;;22.43;60.44;102572.25;5093173;28;20039;-62
2023/09/30 11:11:49;;;;;;;11.20;6.00;;;;;;;22.34;59.23;102572.34;5072886;28;20111;-63
2023/09/30 11:14:31;;;;;;;11.75;6.22;;;;;;;22.35;60.17;102573.22;5089858;28;20030;-62
2023/09/30 11:17:09;;;;;;;;;;;;;;;22.47;60.33;102571.28;5090818;28;20043;-61